CheckWX is a tool to help pilots better visualize weather data.  It is not intended as a substitute for an official pre-flight weather briefing.

12:02:54 UTC

3K3 METAR
Syracuse-Hamilton County Municipal Airport
Syracuse, Kansas, USA
Current

28 mins ago

K3K3 251135Z AUTO 01005KT 5SM BR BKN048 01/01 A3027 RMK AO2
Observed
Mar-25 @ 11:35 UTC
Wind
  • 010° at 5 KTS
Visibility
5 SM
Flight Rules
MVFR
Conditions
Mist
Cloud Levels
  • Broken at 4,800' AGL
Temperature
C / 34°F
Dewpoint
C / 34°F
Humidity
100%
Altimeter
30.27" Hg
Pressure
1025.02 hPa
Previous

48 mins ago

K3K3 251115Z AUTO 01005KT 5SM BR CLR 01/01 A3026 RMK AO2
Observed
Mar-25 @ 11:15 UTC
Wind
  • 010° at 5 KTS
Visibility
5 SM
Flight Rules
MVFR
Conditions
Mist
Cloud Levels
  • Clear skies
Temperature
C / 34°F
Dewpoint
C / 34°F
Humidity
100%
Altimeter
30.26" Hg
Pressure
1024.72 hPa
Previous

1 hour ago

K3K3 251055Z AUTO 36004KT 5SM BR CLR 01/00 A3026 RMK AO2
Observed
Mar-25 @ 10:55 UTC
Wind
  • 360° at 4 KTS
Visibility
5 SM
Flight Rules
MVFR
Conditions
Mist
Cloud Levels
  • Clear skies
Temperature
C / 34°F
Dewpoint
C / 32°F
Humidity
93%
Altimeter
30.26" Hg
Pressure
1024.72 hPa